LOCAL CLIMATOLOGICAL DATA: This Month's Data
[updated each morning between 7AM and 9AM]
Station: Portsmouth, Virginia - KPWR Latitude: 36° 48' 04" N Longitude: 76° 19' 37" W Elevation (ground): 13 ft. Time Zone: Eastern

BE SURE TO RELOAD/REFRESH THIS SCREEN FOR DAILY UPDATES BY RIGHT-CLICKING THE BACKGROUND The data in this frame and listed below are final adjusted site data for the time period.


-----------------------------------------------------------------------------------------------------------------------------------------------------------------------------------
TUESDAY			Temp	Hi	Low	Out	Dew	Wind	Wind	Wind	Hi	Hi	Wind	Heat	THW			Rain	Heat	Cool	In 	In	In 	In 	Wind	Wind	ISS 	Arc.
Date		Time	Out	Temp	Temp	Hum	Pt.	Speed	Dir	Run	Speed	Dir	Chill	Index	Index	Bar  	Rain	Rate	D-D 	D-D 	Temp	Hum	Dew	Heat	Samp	Tx 	Recept	Int.
10/01/19	1:00 a	70.2	70.2	69.2	79	63.4	4.0	NE	4.00	10.0	NE	70.2	71.2	71.2	30.144	0.00	0.00	0.000	0.217	81.4	39	54.1	80.4	1404	1	100.0	60
10/01/19	2:00 a	70.0	70.2	70.0	80	63.5	0.0	E	0.00	5.0	E	70.0	71.1	71.1	30.133	0.00	0.00	0.000	0.208	81.3	39	54.0	80.3	1405	1	100.0	60
10/01/19	3:00 a	69.6	70.0	69.6	82	63.9	0.0	E	0.00	5.0	E	69.6	71.0	71.0	30.123	0.00	0.00	0.000	0.192	81.1	40	54.5	80.1	1405	1	100.0	60
10/01/19	4:00 a	69.1	69.7	69.1	84	64.1	0.0	E	0.00	5.0	E	69.1	70.8	70.8	30.114	0.00	0.00	0.000	0.171	80.9	40	54.3	79.9	1405	1	100.0	60
10/01/19	5:00 a	68.1	69.1	68.1	86	63.8	0.0	E	0.00	5.0	E	68.1	69.7	69.7	30.119	0.00	0.00	0.000	0.129	80.7	41	54.8	79.8	1405	1	100.0	60
10/01/19	6:00 a	67.6	68.2	67.6	89	64.2	0.0	E	0.00	4.0	E	67.6	69.2	69.2	30.120	0.00	0.00	0.000	0.108	80.5	41	54.6	79.6	1405	1	100.0	60
10/01/19	7:00 a	67.9	67.9	67.6	91	65.2	0.0	---	0.00	0.0	---	67.9	69.6	69.6	30.133	0.00	0.00	0.000	0.121	80.4	41	54.5	79.5	1405	1	100.0	60
10/01/19	8:00 a	68.7	68.7	67.9	92	66.3	0.0	E	0.00	10.0	E	68.7	70.7	70.7	30.139	0.00	0.00	0.000	0.154	79.4	39	52.3	78.4	1404	1	100.0	60
10/01/19	9:00 a	71.4	71.4	68.7	86	67.0	4.0	NE	4.00	7.0	NE	71.4	73.3	73.3	30.145	0.00	0.00	0.000	0.267	80.1	40	53.6	79.1	1405	1	100.0	60
10/01/19	10:00 a	73.5	73.5	71.5	83	68.0	4.0	NE	4.00	7.0	NE	73.5	75.5	75.5	30.147	0.00	0.00	0.000	0.354	80.8	40	54.2	79.8	1405	1	100.0	60
10/01/19	11:00 a	75.5	75.5	73.5	79	68.5	4.0	NE	4.00	11.0	S	75.5	78.1	78.1	30.139	0.00	0.00	0.000	0.438	81.2	40	54.6	80.3	1405	1	100.0	60
10/01/19	12:00 p	79.0	79.0	75.5	71	68.8	4.0	SSE	4.00	10.0	SSE	79.0	81.4	81.4	30.121	0.00	0.00	0.000	0.583	81.1	39	53.8	80.0	1405	1	100.0	60
10/01/19	1:00 p	81.5	81.5	78.9	62	67.2	5.0	S	5.00	11.0	SSE	81.5	83.8	83.8	30.107	0.00	0.00	0.000	0.688	83.2	40	56.4	83.0	1405	1	100.0	60
10/01/19	2:00 p	83.5	83.5	81.5	60	68.2	4.0	SW	4.00	10.0	SW	83.5	86.7	86.7	30.083	0.00	0.00	0.000	0.771	83.5	37	54.5	82.9	1405	1	100.0	60
10/01/19	3:00 p	83.0	83.9	82.9	66	70.5	5.0	SE	5.00	11.0	SW	83.0	87.2	87.2	30.065	0.00	0.00	0.000	0.750	84.9	39	57.2	84.8	1405	1	100.0	60
10/01/19	4:00 p	83.5	83.8	83.0	65	70.5	5.0	SW	5.00	11.0	SSW	83.5	88.0	88.0	30.044	0.00	0.00	0.000	0.771	87.1	40	59.8	87.5	1405	1	100.0	60
10/01/19	5:00 p	83.1	83.6	83.1	66	70.6	4.0	SW	4.00	13.0	WSW	83.1	87.4	87.4	30.031	0.00	0.00	0.000	0.754	86.4	37	57.0	86.1	1405	1	100.0	60
10/01/19	6:00 p	82.6	83.1	82.6	67	70.5	5.0	SW	5.00	11.0	W	82.6	86.8	86.8	30.028	0.00	0.00	0.000	0.733	87.8	38	59.0	87.4	1405	1	100.0	60
10/01/19	7:00 p	80.9	82.7	80.9	69	69.8	5.0	SW	5.00	10.0	SW	80.9	84.1	84.1	30.035	0.00	0.00	0.000	0.663	86.9	36	56.7	86.3	1405	1	100.0	60
10/01/19	8:00 p	77.5	80.9	77.5	70	66.9	6.0	SSE	6.00	13.0	SSE	77.5	79.5	79.5	30.030	0.00	0.00	0.000	0.521	85.4	37	56.2	85.0	1405	1	100.0	60
10/01/19	9:00 p	74.8	77.5	74.8	76	66.7	5.0	SSE	5.00	11.0	S	74.8	76.9	76.9	30.033	0.00	0.00	0.000	0.408	85.5	37	56.3	85.1	1405	1	100.0	60
10/01/19	10:00 p	72.8	74.8	72.8	78	65.5	4.0	SSE	4.00	10.0	SSE	72.8	74.4	74.4	30.032	0.00	0.00	0.000	0.325	83.6	35	53.1	82.7	1404	1	100.0	60
10/01/19	11:00 p	71.3	72.8	71.3	79	64.4	4.0	SSW	4.00	7.0	SSE	71.3	72.5	72.5	30.022	0.00	0.00	0.000	0.263	83.4	37	54.4	82.8	1405	1	100.0	60
10/02/19	12:00 a	70.2	71.3	70.2	82	64.4	4.0	SSE	4.00	11.0	SSE	70.2	71.5	71.5	30.017	0.00	0.00	0.000	0.217	83.3	37	54.3	82.6	1405	1	100.0	60
WEDNESDAY		Temp	Hi	Low	Out	Dew	Wind	Wind	Wind	Hi	Hi	Wind	Heat	THW			Rain	Heat	Cool	In 	In	In 	In 	Wind	Wind	ISS 	Arc.
Date		Time	Out	Temp	Temp	Hum	Pt.	Speed	Dir	Run	Speed	Dir	Chill	Index	Index	Bar  	Rain	Rate	D-D 	D-D 	Temp	Hum	Dew	Heat	Samp	Tx 	Recept	Int.
10/02/19	1:00 a	69.4	70.2	69.3	84	64.4	4.0	S	4.00	10.0	S	69.4	71.0	71.0	29.999	0.00	0.00	0.000	0.183	83.1	38	54.9	82.5	1403	1	100.0	60
10/02/19	2:00 a	68.9	69.4	68.9	84	63.9	4.0	S	4.00	11.0	S	68.9	70.6	70.6	29.995	0.00	0.00	0.000	0.163	81.6	37	52.8	80.4	1405	1	100.0	60
10/02/19	3:00 a	68.4	68.9	68.4	87	64.4	5.0	S	5.00	11.0	S	68.4	70.1	70.1	29.966	0.00	0.00	0.000	0.142	81.7	38	53.6	80.7	1405	1	100.0	60
10/02/19	4:00 a	68.0	68.4	68.0	89	64.6	5.0	SW	5.00	12.0	WSW	68.0	69.7	69.7	29.960	0.00	0.00	0.000	0.125	81.5	39	54.2	80.5	1405	1	100.0	60
10/02/19	5:00 a	67.7	68.0	67.6	90	64.7	5.0	SW	5.00	13.0	SSW	67.7	69.3	69.3	29.969	0.00	0.00	0.000	0.112	81.3	39	54.0	80.3	1405	1	100.0	60
10/02/19	6:00 a	67.7	67.7	67.6	91	65.0	5.0	SW	5.00	14.0	SW	67.7	69.4	69.4	29.976	0.00	0.00	0.000	0.112	81.0	40	54.4	80.0	1405	1	100.0	60
10/02/19	7:00 a	67.6	67.7	67.6	91	64.9	6.0	SW	6.00	14.0	SW	67.6	69.3	69.3	29.985	0.00	0.00	0.000	0.108	80.8	41	54.9	79.9	1405	1	100.0	60
10/02/19	8:00 a	68.4	68.4	67.6	92	66.0	6.0	SW	6.00	14.0	SSW	68.4	70.3	70.3	29.985	0.00	0.00	0.000	0.142	79.4	39	52.3	78.4	1405	1	100.0	60
10/02/19	9:00 a	71.1	71.1	68.4	92	68.7	6.0	SW	6.00	14.0	WSW	71.1	73.5	73.5	29.983	0.00	0.00	0.000	0.254	80.5	41	54.6	79.6	1405	1	100.0	60
10/02/19	10:00 a	75.7	75.7	71.1	86	71.2	5.0	SW	5.00	15.0	SW	75.7	78.9	78.9	29.975	0.00	0.00	0.000	0.446	82.7	40	55.9	82.3	1404	1	100.0	60
10/02/19	11:00 a	80.5	80.5	75.7	80	73.8	6.0	SW	6.00	15.0	SSE	80.5	85.5	85.5	29.958	0.00	0.00	0.000	0.646	83.7	38	55.4	83.4	1405	1	100.0	60
10/02/19	12:00 p	84.1	84.1	80.5	77	76.1	6.0	SW	6.00	15.0	SW	84.1	93.6	93.6	29.937	0.00	0.00	0.000	0.796	86.2	37	56.9	85.9	1406	1	100.0	60
10/02/19	1:00 p	87.5	87.5	84.1	73	77.8	6.0	SW	6.00	15.0	SSW	87.5	99.6	99.6	29.917	0.00	0.00	0.000	0.938	87.6	39	59.6	87.6	1404	1	100.0	60
10/02/19	2:00 p	90.2	90.2	87.5	67	77.8	6.0	SW	6.00	16.0	W	90.2	104.6	104.6	29.893	0.00	0.00	0.000	1.050	88.4	34	56.5	87.2	1405	1	100.0	60
10/02/19	3:00 p	92.2	92.2	90.3	60	76.3	6.0	SW	6.00	15.0	SW	92.2	105.5	105.5	29.875	0.00	0.00	0.000	1.133	89.5	41	62.7	91.0	1405	1	100.0	60
10/02/19	4:00 p	93.1	93.1	92.2	58	76.1	6.0	S	6.00	13.0	SSE	93.1	106.7	106.7	29.855	0.00	0.00	0.000	1.171	90.8	37	60.9	91.6	1405	1	100.0	60
10/02/19	5:00 p	93.1	93.3	93.1	59	76.6	5.0	SW	5.00	15.0	WSW	93.1	107.4	107.4	29.843	0.00	0.00	0.000	1.171	90.4	37	60.6	91.0	1405	1	100.0	60
10/02/19	6:00 p	91.8	93.1	91.7	62	76.9	5.0	SW	5.00	12.0	S	91.8	105.8	105.8	29.844	0.00	0.00	0.000	1.117	91.5	36	60.8	92.3	1405	1	100.0	60
10/02/19	7:00 p	89.2	91.7	89.2	67	76.8	5.0	SSW	5.00	13.0	SSE	89.2	101.3	101.3	29.854	0.00	0.00	0.000	1.008	89.3	36	58.8	89.1	1405	1	100.0	60
10/02/19	8:00 p	86.4	89.2	86.4	73	76.7	5.0	SSW	5.00	12.0	WSW	86.4	97.3	97.3	29.865	0.00	0.00	0.000	0.892	89.7	36	59.2	89.7	1405	1	100.0	60
10/02/19	9:00 p	83.9	86.4	83.9	79	76.7	5.0	SW	5.00	11.0	SW	83.9	93.9	93.9	29.882	0.00	0.00	0.000	0.788	87.4	36	57.2	86.7	1405	1	100.0	60
10/02/19	10:00 p	82.2	84.0	82.2	82	76.2	5.0	SSW	5.00	13.0	WSW	82.2	90.1	90.1	29.891	0.00	0.00	0.000	0.717	87.8	36	57.5	86.9	1405	1	100.0	60
10/02/19	11:00 p	80.9	82.2	80.9	85	76.0	5.0	SW	5.00	13.0	SSE	80.9	87.6	87.6	29.902	0.00	0.00	0.000	0.663	86.0	36	55.9	85.5	1405	1	100.0	60
10/03/19	12:00 a	79.2	80.9	79.2	88	75.3	5.0	SW	5.00	13.0	WSW	79.2	84.7	84.7	29.903	0.00	0.00	0.000	0.592	86.4	37	57.0	86.1	1405	1	100.0	60
THURSDAY		Temp	Hi	Low	Out	Dew	Wind	Wind	Wind	Hi	Hi	Wind	Heat	THW			Rain	Heat	Cool	In 	In	In 	In 	Wind	Wind	ISS 	Arc.
Date		Time	Out	Temp	Temp	Hum	Pt.	Speed	Dir	Run	Speed	Dir	Chill	Index	Index	Bar  	Rain	Rate	D-D 	D-D 	Temp	Hum	Dew	Heat	Samp	Tx 	Recept	Int.
10/03/19	1:00 a	77.8	79.2	77.8	91	75.0	5.0	SW	5.00	13.0	WSW	77.8	82.6	82.6	29.898	0.00	0.00	0.000	0.533	84.5	36	54.6	83.9	1403	1	100.0	60
10/03/19	2:00 a	76.8	77.8	76.8	93	74.6	5.0	SW	5.00	13.0	SSW	76.8	81.0	81.0	29.898	0.00	0.00	0.000	0.492	84.9	37	55.7	84.5	1405	1	100.0	60
10/03/19	3:00 a	76.1	76.8	76.1	94	74.2	6.0	SW	6.00	14.0	WSW	76.1	80.0	80.0	29.890	0.00	0.00	0.000	0.462	84.6	37	55.5	84.2	1405	1	100.0	60
10/03/19	4:00 a	75.3	76.1	75.3	94	73.5	5.0	SW	5.00	12.0	SSW	75.3	79.0	79.0	29.890	0.00	0.00	0.000	0.429	83.4	37	54.4	82.8	1405	1	100.0	60
10/03/19	5:00 a	74.5	75.3	74.5	95	73.0	5.0	SW	5.00	11.0	SW	74.5	77.8	77.8	29.900	0.00	0.00	0.000	0.396	83.5	38	55.2	83.1	1405	1	100.0	60
10/03/19	6:00 a	73.7	74.5	73.7	96	72.5	6.0	SW	6.00	12.0	SW	73.7	76.8	76.8	29.908	0.00	0.00	0.000	0.362	83.8	38	55.5	83.6	1405	1	100.0	60
10/03/19	7:00 a	73.2	73.7	73.2	97	72.3	4.0	WNW	4.00	7.0	SW	73.2	76.3	76.3	29.927	0.00	0.00	0.000	0.342	82.4	37	53.5	81.4	1405	1	100.0	60
10/03/19	8:00 a	73.3	73.3	73.1	98	72.7	4.0	WSW	4.00	7.0	W	73.3	76.6	76.6	29.944	0.00	0.00	0.000	0.346	82.8	38	54.6	82.1	1405	1	100.0	60
10/03/19	9:00 a	74.9	74.9	73.3	98	74.3	4.0	W	4.00	7.0	W	74.9	78.6	78.6	29.955	0.00	0.00	0.000	0.413	83.7	38	55.4	83.4	1405	1	100.0	60
10/03/19	10:00 a	78.4	78.4	74.9	87	74.2	5.0	W	5.00	11.0	NE	78.4	83.1	83.1	29.958	0.00	0.00	0.000	0.558	83.9	37	54.8	83.5	1405	1	100.0	60
10/03/19	11:00 a	83.2	83.2	78.5	77	75.2	5.0	ENE	5.00	11.0	NW	83.2	91.3	91.3	29.947	0.00	0.00	0.000	0.758	86.3	39	58.4	86.4	1405	1	100.0	60
10/03/19	12:00 p	86.2	86.2	83.2	71	75.7	4.0	S	4.00	11.0	SSE	86.2	96.1	96.1	29.940	0.00	0.00	0.000	0.883	86.8	38	58.1	86.7	1405	1	100.0	60
10/03/19	1:00 p	89.5	89.5	86.2	63	75.2	5.0	NNW	5.00	13.0	NNW	89.5	100.1	100.1	29.929	0.00	0.00	0.000	1.021	89.4	38	60.5	89.9	1404	1	100.0	60
10/03/19	2:00 p	89.0	90.7	89.0	70	77.9	10.0	NE	10.00	18.0	NNW	88.8	102.3	102.1	29.923	0.00	0.00	0.000	1.000	89.4	39	61.2	90.2	1405	1	100.0	60
10/03/19	3:00 p	85.9	89.0	85.9	73	76.2	10.0	ENE	10.00	17.0	NE	85.1	96.1	95.3	29.921	0.00	0.00	0.000	0.871	91.3	36	60.6	92.0	1405	1	100.0	60
10/03/19	4:00 p	84.2	85.9	84.2	76	75.8	10.0	ENE	10.00	17.0	ENE	83.1	93.4	92.3	29.913	0.00	0.00	0.000	0.800	90.9	38	61.8	92.1	1405	1	100.0	60
10/03/19	5:00 p	82.9	84.2	82.9	78	75.3	10.0	NE	10.00	16.0	ENE	81.7	90.8	89.6	29.909	0.00	0.00	0.000	0.746	92.4	34	60.0	92.9	1405	1	100.0	60
10/03/19	6:00 p	81.1	82.9	81.1	81	74.7	7.0	ENE	7.00	16.0	ENE	81.1	87.0	87.0	29.919	0.00	0.00	0.000	0.671	90.6	35	59.2	90.7	1405	1	100.0	60
10/03/19	7:00 p	78.9	81.1	78.9	87	74.7	7.0	ENE	7.00	16.0	ENE	78.9	83.9	83.9	29.921	0.00	0.00	0.000	0.579	90.8	38	61.7	91.9	1405	1	100.0	60
10/03/19	8:00 p	77.3	78.9	77.3	88	73.5	4.0	ENE	4.00	11.0	ENE	77.3	81.3	81.3	29.935	0.00	0.00	0.000	0.513	87.5	35	56.5	86.5	1405	1	100.0	60
10/03/19	9:00 p	76.1	77.3	76.1	91	73.3	4.0	SE	4.00	10.0	SSE	76.1	79.7	79.7	29.940	0.00	0.00	0.000	0.462	88.3	36	58.0	87.5	1405	1	100.0	60
10/03/19	10:00 p	75.0	76.1	75.0	93	72.8	5.0	SSE	5.00	11.0	E	75.0	78.6	78.6	29.943	0.00	0.00	0.000	0.417	85.5	35	54.7	84.8	1405	1	100.0	60
10/03/19	11:00 p	74.3	75.0	74.3	95	72.8	5.0	SE	5.00	10.0	SSE	74.3	77.5	77.5	29.940	0.00	0.00	0.000	0.388	86.1	36	56.0	85.6	1405	1	100.0	60
10/04/19	12:00 a	74.1	74.3	74.1	96	72.9	5.0	S	5.00	12.0	S	74.1	77.3	77.3	29.930	0.00	0.00	0.000	0.379	84.9	35	54.2	84.1	1405	1	100.0	60
FRIDAY			Temp	Hi	Low	Out	Dew	Wind	Wind	Wind	Hi	Hi	Wind	Heat	THW			Rain	Heat	Cool	In 	In	In 	In 	Wind	Wind	ISS 	Arc.
Date		Time	Out	Temp	Temp	Hum	Pt.	Speed	Dir	Run	Speed	Dir	Chill	Index	Index	Bar  	Rain	Rate	D-D 	D-D 	Temp	Hum	Dew	Heat	Samp	Tx 	Recept	Int.
10/04/19	1:00 a	74.0	74.1	73.9	97	73.1	5.0	SSE	5.00	11.0	S	74.0	77.2	77.2	29.914	0.00	0.00	0.000	0.375	84.7	36	54.8	84.1	1404	1	100.0	60
10/04/19	2:00 a	74.0	74.0	73.9	98	73.4	4.0	SSE	4.00	15.0	S	74.0	77.4	77.4	29.907	0.00	0.00	0.000	0.375	84.5	37	55.4	84.1	1404	1	100.0	60
10/04/19	3:00 a	74.3	74.3	74.0	98	73.7	5.0	SW	5.00	11.0	SW	74.3	77.8	77.8	29.895	0.00	0.00	0.000	0.388	83.8	36	54.0	83.2	1406	1	100.0	60
10/04/19	4:00 a	74.0	74.3	74.0	98	73.4	5.0	SW	5.00	10.0	SW	74.0	77.4	77.4	29.890	0.00	0.00	0.000	0.375	82.8	37	53.9	81.9	1404	1	100.0	60
10/04/19	5:00 a	73.8	74.0	73.8	99	73.5	5.0	SW	5.00	11.0	SW	73.8	77.3	77.3	29.891	0.00	0.00	0.000	0.367	82.9	37	54.0	82.0	1405	1	100.0	60
10/04/19	6:00 a	73.7	73.8	73.7	99	73.4	5.0	SSW	5.00	12.0	SW	73.7	77.2	77.2	29.900	0.00	0.00	0.000	0.362	82.9	38	54.7	82.2	1405	1	100.0	60
10/04/19	7:00 a	73.3	73.8	73.3	98	72.7	5.0	SSW	5.00	12.0	WNW	73.3	76.6	76.6	29.931	0.00	0.00	0.000	0.346	81.3	37	52.5	80.1	1405	1	100.0	60
10/04/19	8:00 a	73.5	73.5	73.2	97	72.6	6.0	NNW	6.00	17.0	NNW	73.5	76.7	76.7	29.963	0.00	0.00	0.000	0.354	81.9	38	53.8	80.9	1405	1	100.0	60
10/04/19	9:00 a	75.1	75.1	73.5	94	73.3	10.0	NE	10.00	22.0	NE	73.1	78.8	76.8	29.990	0.00	0.00	0.000	0.421	82.7	39	55.2	82.1	1405	1	100.0	60
10/04/19	10:00 a	77.3	77.3	75.1	88	73.5	12.0	NE	12.00	24.0	NE	74.7	81.3	78.7	30.008	0.00	0.00	0.000	0.513	81.6	39	54.2	80.7	1405	1	100.0	60
10/04/19	11:00 a	75.6	77.3	75.5	81	69.4	15.0	NE	15.00	28.0	ENE	71.9	78.4	74.7	30.030	0.00	0.00	0.000	0.442	82.7	43	57.9	82.7	1405	1	100.0	60
10/04/19	12:00 p	75.0	75.6	75.0	75	66.5	14.0	NE	14.00	30.0	NE	71.5	77.1	73.6	30.044	0.00	0.00	0.000	0.417	81.8	41	55.8	81.2	1405	1	100.0	60
10/04/19	1:00 p	74.3	75.0	74.1	69	63.5	14.0	NE	14.00	28.0	NE	70.7	75.9	72.3	30.053	0.00	0.00	0.000	0.388	83.0	42	57.5	83.0	1405	1	100.0	60
10/04/19	2:00 p	74.8	74.9	74.3	65	62.2	15.0	NE	15.00	30.0	NE	71.0	76.1	72.3	30.053	0.00	0.00	0.000	0.408	82.3	40	55.6	81.7	1405	1	100.0	60
10/04/19	3:00 p	75.0	75.1	74.5	64	62.0	14.0	NE	14.00	26.0	NE	71.5	76.2	72.7	30.051	0.00	0.00	0.000	0.417	83.7	41	57.5	84.0	1405	1	100.0	60
10/04/19	4:00 p	75.7	75.8	74.9	60	60.8	13.0	NE	13.00	23.0	ENE	72.6	76.5	73.4	30.051	0.00	0.00	0.000	0.446	83.7	38	55.4	83.4	1405	1	100.0	60
10/04/19	5:00 p	75.1	75.8	75.1	60	60.3	13.0	NE	13.00	24.0	NNE	71.9	76.0	72.8	30.067	0.00	0.00	0.000	0.421	85.6	39	57.8	85.6	1404	1	100.0	60
10/04/19	6:00 p	74.5	75.1	74.5	57	58.3	13.0	NE	13.00	24.0	E	71.3	75.0	71.8	30.079	0.00	0.00	0.000	0.396	83.8	37	54.7	83.4	1406	1	100.0	60
10/04/19	7:00 p	73.7	74.5	73.6	59	58.5	10.0	NE	10.00	22.0	E	71.7	74.2	72.2	30.097	0.00	0.00	0.000	0.362	83.9	38	55.6	83.7	1405	1	100.0	60
10/04/19	8:00 p	71.1	73.7	71.1	73	62.0	5.0	NE	5.00	16.0	NE	71.1	71.8	71.8	30.125	0.00	0.00	0.000	0.254	83.5	39	55.9	83.3	1404	1	100.0	60
10/04/19	9:00 p	69.5	71.1	69.5	75	61.2	4.0	ENE	4.00	16.0	NE	69.5	70.3	70.3	30.139	0.00	0.00	0.000	0.188	82.7	38	54.5	82.0	1405	1	100.0	60
10/04/19	10:00 p	69.1	69.6	69.0	73	60.1	5.0	ENE	5.00	16.0	NE	69.1	69.8	69.8	30.154	0.00	0.00	0.000	0.171	81.1	38	53.1	79.9	1405	1	100.0	60
10/04/19	11:00 p	69.8	70.3	69.1	68	58.8	12.0	ENE	12.00	26.0	E	66.7	69.8	66.7	30.183	0.00	0.00	0.000	0.200	80.9	39	53.6	79.8	1405	1	100.0	60
10/05/19	12:00 a	67.8	69.8	67.8	69	57.3	14.0	ENE	14.00	24.0	ENE	63.8	68.3	64.3	30.208	0.00	0.00	0.000	0.117	80.8	39	53.5	79.7	1405	1	100.0	60
SATURDAY		Temp	Hi	Low	Out	Dew	Wind	Wind	Wind	Hi	Hi	Wind	Heat	THW			Rain	Heat	Cool	In 	In	In 	In 	Wind	Wind	ISS 	Arc.
Date		Time	Out	Temp	Temp	Hum	Pt.	Speed	Dir	Run	Speed	Dir	Chill	Index	Index	Bar  	Rain	Rate	D-D 	D-D 	Temp	Hum	Dew	Heat	Samp	Tx 	Recept	Int.
10/05/19	1:00 a	65.8	67.8	65.8	72	56.5	13.0	NE	13.00	25.0	E	61.9	66.1	62.2	30.216	0.00	0.00	0.000	0.033	80.4	40	53.9	79.4	1404	1	100.0	60
10/05/19	2:00 a	64.5	65.8	64.5	75	56.4	12.0	NE	12.00	21.0	NE	60.9	64.7	61.1	30.224	0.00	0.00	0.021	0.000	80.0	40	53.5	79.0	1405	1	100.0	60
10/05/19	3:00 a	63.6	64.5	63.6	76	55.9	11.0	NE	11.00	20.0	ENE	60.5	63.7	60.6	30.228	0.00	0.00	0.058	0.000	79.5	41	53.7	78.7	1405	1	100.0	60
10/05/19	4:00 a	62.7	63.6	62.7	80	56.4	11.0	NE	11.00	20.0	NE	59.4	63.0	59.7	30.235	0.00	0.00	0.096	0.000	79.1	41	53.4	78.4	1404	1	100.0	60
10/05/19	5:00 a	62.1	62.8	62.1	81	56.2	10.0	NE	10.00	19.0	NE	59.4	62.3	59.6	30.242	0.00	0.00	0.121	0.000	78.6	41	52.9	77.9	1406	1	100.0	60
10/05/19	6:00 a	61.7	62.1	61.7	82	56.1	10.0	NE	10.00	17.0	ENE	58.9	61.9	59.1	30.251	0.00	0.00	0.137	0.000	78.1	42	53.1	77.4	1404	1	100.0	60
10/05/19	7:00 a	61.7	61.7	61.5	83	56.5	7.0	NE	7.00	17.0	NNE	61.3	61.9	61.5	30.268	0.00	0.00	0.137	0.000	78.3	42	53.3	77.6	1405	1	100.0	60
10/05/19	8:00 a	62.1	62.2	61.6	84	57.2	7.0	NE	7.00	17.0	ENE	61.8	62.4	62.1	30.280	0.00	0.00	0.121	0.000	78.5	42	53.5	77.8	1405	1	100.0	60
10/05/19	9:00 a	63.8	63.8	62.2	82	58.2	10.0	ENE	10.00	20.0	ENE	61.4	64.3	61.9	30.291	0.00	0.00	0.050	0.000	78.1	40	51.8	77.2	1405	1	100.0	60
10/05/19	10:00 a	65.8	65.8	63.8	78	58.7	11.0	ENE	11.00	19.0	NNE	63.1	66.5	63.8	30.298	0.00	0.00	0.000	0.033	79.7	41	53.9	78.9	1405	1	100.0	60
10/05/19	11:00 a	67.5	67.5	65.8	76	59.7	12.0	NE	12.00	23.0	ENE	64.4	68.4	65.3	30.306	0.00	0.00	0.000	0.104	81.0	40	54.4	80.0	1405	1	100.0	60
10/05/19	12:00 p	68.9	68.9	67.5	69	58.3	12.0	ENE	12.00	23.0	NE	65.8	69.2	66.1	30.307	0.00	0.00	0.000	0.163	81.7	40	55.0	80.9	1405	1	100.0	60
10/05/19	1:00 p	69.1	69.3	69.0	70	58.9	11.0	ENE	11.00	23.0	ENE	66.5	69.5	66.9	30.303	0.00	0.00	0.000	0.171	82.3	40	55.6	81.7	1405	1	100.0	60
10/05/19	2:00 p	69.2	69.5	69.0	71	59.4	11.0	ENE	11.00	22.0	ENE	66.6	69.7	67.1	30.286	0.00	0.00	0.000	0.175	81.6	37	52.8	80.4	1405	1	100.0	60
10/05/19	3:00 p	68.7	69.4	68.7	72	59.3	11.0	ENE	11.00	22.0	ENE	66.1	69.4	66.8	30.283	0.00	0.00	0.000	0.154	82.3	40	55.6	81.7	1405	1	100.0	60
10/05/19	4:00 p	68.1	68.8	68.1	74	59.5	11.0	ENE	11.00	24.0	NE	65.5	68.9	66.3	30.278	0.00	0.00	0.000	0.129	82.3	41	56.2	81.9	1405	1	100.0	60
10/05/19	5:00 p	67.6	68.1	67.6	75	59.4	10.0	ENE	10.00	22.0	NE	65.5	68.4	66.3	30.273	0.00	0.00	0.000	0.108	81.8	41	55.8	81.2	1405	1	100.0	60
10/05/19	6:00 p	67.2	67.7	67.2	75	59.0	10.0	ENE	10.00	22.0	ENE	65.2	67.9	65.9	30.274	0.00	0.00	0.000	0.092	81.2	41	55.3	80.4	1405	1	100.0	60
10/05/19	7:00 p	66.7	67.2	66.7	75	58.5	6.0	ENE	6.00	17.0	NE	66.7	67.3	67.3	30.268	0.00	0.00	0.000	0.071	81.2	41	55.3	80.4	1404	1	100.0	60
10/05/19	8:00 p	65.8	66.7	65.8	77	58.4	6.0	ENE	6.00	16.0	ENE	65.8	66.4	66.4	30.279	0.00	0.00	0.000	0.033	79.0	39	51.9	78.1	1405	1	100.0	60
10/05/19	9:00 p	65.3	65.8	65.2	79	58.6	5.0	ENE	5.00	14.0	NE	65.3	66.0	66.0	30.276	0.00	0.00	0.000	0.013	79.1	40	52.7	78.3	1405	1	100.0	60
10/05/19	10:00 p	65.3	65.4	65.3	81	59.3	5.0	ENE	5.00	15.0	NE	65.3	66.1	66.1	30.282	0.00	0.00	0.000	0.013	78.9	41	53.2	78.2	1405	1	100.0	60
10/05/19	11:00 p	65.2	65.3	65.2	83	59.9	5.0	NE	5.00	13.0	ENE	65.2	66.0	66.0	30.275	0.00	0.00	0.000	0.008	78.5	41	52.8	77.7	1405	1	100.0	60
10/06/19	12:00 a	65.0	65.2	65.0	84	60.0	4.0	NE	4.00	7.0	NE	65.0	65.8	65.8	30.268	0.00	0.00	0.000	0.000	78.3	42	53.3	77.6	1405	1	100.0	60
MONDAY			Temp	Hi	Low	Out	Dew	Wind	Wind	Wind	Hi	Hi	Wind	Heat	THW			Rain	Heat	Cool	In 	In	In 	In 	Wind	Wind	ISS 	Arc.
Date		Time	Out	Temp	Temp	Hum	Pt.	Speed	Dir	Run	Speed	Dir	Chill	Index	Index	Bar  	Rain	Rate	D-D 	D-D 	Temp	Hum	Dew	Heat	Samp	Tx 	Recept	Int.
10/06/19	1:00 a	64.0	65.0	64.0	86	59.7	0.0	NE	0.00	5.0	NE	64.0	64.6	64.6	30.254	0.00	0.00	0.042	0.000	78.1	42	53.1	77.4	1404	1	100.0	60
10/06/19	2:00 a	63.4	64.0	63.3	90	60.4	0.0	NE	0.00	5.0	NE	63.4	64.1	64.1	30.250	0.00	0.00	0.067	0.000	77.8	43	53.5	77.2	1405	1	100.0	60
10/06/19	3:00 a	64.0	64.0	63.4	89	60.7	0.0	NE	0.00	5.0	NE	64.0	64.8	64.8	30.245	0.00	0.00	0.042	0.000	77.6	43	53.3	77.0	1405	1	100.0	60
10/06/19	4:00 a	64.8	64.8	64.0	89	61.5	0.0	---	0.00	0.0	---	64.8	65.7	65.7	30.232	0.00	0.00	0.008	0.000	77.5	43	53.2	76.9	1405	1	100.0	60
10/06/19	5:00 a	64.6	64.9	64.6	89	61.3	0.0	NE	0.00	6.0	NE	64.6	65.5	65.5	30.230	0.00	0.00	0.017	0.000	77.3	43	53.1	76.7	1405	1	100.0	60
10/06/19	6:00 a	63.4	64.6	63.4	91	60.7	0.0	NE	0.00	6.0	NE	63.4	64.2	64.2	30.239	0.00	0.00	0.067	0.000	77.2	44	53.6	76.7	1404	1	100.0	60
10/06/19	7:00 a	63.5	63.5	63.1	94	61.7	0.0	NE	0.00	7.0	E	63.5	64.4	64.4	30.253	0.00	0.00	0.063	0.000	77.6	43	53.3	77.0	1405	1	100.0	60
10/06/19	8:00 a	64.7	64.8	63.5	93	62.6	5.0	ESE	5.00	11.0	SSE	64.7	65.8	65.8	30.266	0.00	0.00	0.013	0.000	77.9	43	53.6	77.3	1406	1	100.0	60
10/06/19	9:00 a	67.0	67.0	64.7	89	63.6	6.0	SSE	6.00	14.0	SSE	67.0	68.5	68.5	30.277	0.00	0.00	0.000	0.083	77.4	42	52.5	76.7	1404	1	100.0	60
10/06/19	10:00 a	71.0	71.0	67.0	85	66.3	6.0	S	6.00	14.0	SE	71.0	72.8	72.8	30.290	0.00	0.00	0.000	0.250	77.9	42	53.0	77.2	1405	1	100.0	60
10/06/19	11:00 a	75.3	75.3	71.0	74	66.4	7.0	SSE	7.00	20.0	SSE	75.3	77.4	77.4	30.292	0.00	0.00	0.000	0.429	78.5	44	54.8	78.0	1405	1	100.0	60
10/06/19	12:00 p	77.7	77.7	75.3	68	66.3	11.0	SSE	11.00	21.0	SE	75.5	79.4	77.2	30.283	0.00	0.00	0.000	0.529	79.8	44	55.9	79.3	1405	1	100.0	60
10/06/19	1:00 p	79.5	79.5	77.7	61	64.9	11.0	SSE	11.00	24.0	SSE	77.6	80.8	78.9	30.280	0.00	0.00	0.000	0.604	81.1	44	57.1	80.6	1405	1	100.0	60
10/06/19	2:00 p	80.7	80.8	79.4	55	63.0	10.0	SSE	10.00	20.0	SSE	79.2	81.5	80.0	30.258	0.00	0.00	0.000	0.654	80.7	39	53.4	79.6	1405	1	100.0	60
10/06/19	3:00 p	81.7	81.7	80.6	55	64.0	11.0	SSE	11.00	21.0	SE	80.0	82.9	81.2	30.241	0.00	0.00	0.000	0.696	81.9	42	56.6	81.4	1405	1	100.0	60
10/06/19	4:00 p	82.1	82.1	81.6	59	66.4	10.0	SSE	10.00	22.0	S	80.7	84.2	82.8	30.236	0.00	0.00	0.000	0.712	83.6	41	57.4	83.8	1405	1	100.0	60
10/06/19	5:00 p	81.2	82.2	81.2	60	66.0	10.0	SSE	10.00	21.0	SSE	79.7	83.0	81.5	30.230	0.00	0.00	0.000	0.675	83.4	41	57.2	83.5	1405	1	100.0	60
10/06/19	6:00 p	78.6	81.2	78.6	64	65.4	7.0	SSE	7.00	19.0	SSE	78.6	80.1	80.1	30.235	0.00	0.00	0.000	0.567	84.3	41	58.0	84.7	1405	1	100.0	60
10/06/19	7:00 p	76.2	78.6	76.2	65	63.6	7.0	SSE	7.00	17.0	SSE	76.2	77.4	77.4	30.231	0.00	0.00	0.000	0.467	82.4	38	54.2	81.6	1405	1	100.0	60
10/06/19	8:00 p	73.5	76.2	73.5	71	63.5	6.0	SSE	6.00	14.0	SSE	73.5	74.9	74.9	30.250	0.00	0.00	0.000	0.354	82.6	38	54.4	81.8	1405	1	100.0	60
10/06/19	9:00 p	71.7	73.5	71.7	77	64.1	6.0	SSE	6.00	14.0	SE	71.7	72.8	72.8	30.260	0.00	0.00	0.000	0.279	81.0	39	53.7	79.9	1405	1	100.0	60
10/06/19	10:00 p	70.3	71.7	70.3	80	63.8	6.0	SSE	6.00	14.0	SE	70.3	71.5	71.5	30.264	0.00	0.00	0.000	0.221	81.2	40	54.6	80.3	1404	1	100.0	60
10/06/19	11:00 p	68.9	70.3	68.9	84	63.9	5.0	SSE	5.00	10.0	SSE	68.9	70.6	70.6	30.253	0.00	0.00	0.000	0.163	80.5	41	54.6	79.6	1405	1	100.0	60
10/07/19	12:00 a	67.8	69.0	67.8	88	64.1	5.0	SSE	5.00	10.0	SSE	67.8	69.4	69.4	30.233	0.00	0.00	0.000	0.117	79.0	39	51.9	78.1	1405	1	100.0	60
MONDAY			Temp	Hi	Low	Out	Dew	Wind	Wind	Wind	Hi	Hi	Wind	Heat	THW			Rain	Heat	Cool	In 	In	In 	In 	Wind	Wind	ISS 	Arc.
Date		Time	Out	Temp	Temp	Hum	Pt.	Speed	Dir	Run	Speed	Dir	Chill	Index	Index	Bar  	Rain	Rate	D-D 	D-D 	Temp	Hum	Dew	Heat	Samp	Tx 	Recept	Int.
10/07/19	1:00 a	66.8	67.8	66.8	90	63.8	4.0	SSE	4.00	11.0	S	66.8	68.3	68.3	30.218	0.00	0.00	0.000	0.075	78.9	41	53.2	78.2	1404	1	100.0	60
10/07/19	2:00 a	65.6	66.8	65.6	92	63.2	0.0	SSE	0.00	5.0	SSE	65.6	66.8	66.8	30.206	0.00	0.00	0.000	0.025	78.7	41	53.0	78.0	1405	1	100.0	60
10/07/19	3:00 a	64.3	65.6	64.3	93	62.2	0.0	SSE	0.00	5.0	SSE	64.3	65.3	65.3	30.187	0.00	0.00	0.029	0.000	78.3	42	53.3	77.6	1405	1	100.0	60
10/07/19	4:00 a	63.1	64.3	63.1	94	61.3	0.0	SSE	0.00	4.0	SSE	63.1	63.9	63.9	30.176	0.00	0.00	0.079	0.000	78.2	43	53.9	77.6	1405	1	100.0	60
10/07/19	5:00 a	62.6	63.1	62.6	95	61.1	0.0	SSE	0.00	4.0	SSE	62.6	63.4	63.4	30.174	0.00	0.00	0.100	0.000	78.2	43	53.9	77.6	1405	1	100.0	60
10/07/19	6:00 a	62.4	62.6	62.3	96	61.2	0.0	SSE	0.00	4.0	SSE	62.4	63.2	63.2	30.170	0.00	0.00	0.108	0.000	77.9	43	53.6	77.3	1405	1	100.0	60
10/07/19	7:00 a	62.3	62.4	62.2	97	61.4	0.0	---	0.00	0.0	---	62.3	63.1	63.1	30.168	0.00	0.00	0.113	0.000	78.0	44	54.3	77.5	1405	1	100.0	60
10/07/19	8:00 a	62.6	62.6	62.2	97	61.7	0.0	SSE	0.00	4.0	SSE	62.6	63.4	63.4	30.172	0.00	0.00	0.100	0.000	78.3	44	54.6	77.8	1405	1	100.0	60
10/07/19	9:00 a	66.7	66.7	62.6	100	66.7	4.0	SSE	4.00	13.0	SE	66.7	68.4	68.4	30.170	0.00	0.00	0.000	0.071	78.9	46	56.4	78.7	1404	1	100.0	60
10/07/19	10:00 a	70.9	70.9	66.8	92	68.5	6.0	SSE	6.00	15.0	S	70.9	73.3	73.3	30.163	0.00	0.00	0.000	0.246	80.0	46	57.4	79.7	1405	1	100.0	60
10/07/19	11:00 a	77.2	77.2	70.9	73	67.9	10.0	SSE	10.00	17.0	SSE	75.3	79.5	77.6	30.152	0.00	0.00	0.000	0.508	82.0	44	57.9	81.8	1405	1	100.0	60
10/07/19	12:00 p	80.7	80.7	77.2	64	67.4	7.0	SSE	7.00	19.0	S	80.7	82.9	82.9	30.128	0.00	0.00	0.000	0.654	82.4	42	57.0	82.1	1405	1	100.0	60
10/07/19	1:00 p	82.9	82.9	80.8	62	68.5	7.0	SSE	7.00	18.0	SSE	82.9	86.0	86.0	30.103	0.00	0.00	0.000	0.746	83.7	43	58.8	84.3	1405	1	100.0	60
10/07/19	2:00 p	83.7	83.7	82.9	58	67.4	7.0	SSE	7.00	17.0	SSE	83.7	86.7	86.7	30.072	0.00	0.00	0.000	0.779	83.7	37	54.7	83.2	1405	1	100.0	60
10/07/19	3:00 p	84.0	84.1	83.7	63	70.0	10.0	SSE	10.00	19.0	SSE	82.9	88.6	87.5	30.054	0.00	0.00	0.000	0.792	85.0	42	59.3	85.5	1405	1	100.0	60
10/07/19	4:00 p	84.0	84.4	84.0	60	68.6	10.0	SSE	10.00	20.0	SE	82.9	87.7	86.6	30.047	0.00	0.00	0.000	0.792	86.0	39	58.2	86.0	1405	1	100.0	60
10/07/19	5:00 p	82.6	84.0	82.6	64	69.2	10.0	SSE	10.00	19.0	SSE	81.3	86.0	84.7	30.030	0.00	0.00	0.000	0.733	86.0	40	58.9	86.2	1405	1	100.0	60
10/07/19	6:00 p	80.5	82.6	80.5	67	68.5	10.0	SSE	10.00	18.0	S	79.0	83.1	81.6	30.030	0.00	0.00	0.000	0.646	85.7	38	57.2	85.5	1405	1	100.0	60
10/07/19	7:00 p	77.7	80.5	77.7	72	68.0	7.0	SSE	7.00	17.0	S	77.7	79.9	79.9	30.031	0.00	0.00	0.000	0.529	84.3	39	56.6	84.3	1405	1	100.0	60
10/07/19	8:00 p	75.2	77.7	75.2	79	68.2	6.0	SSE	6.00	14.0	ESE	75.2	77.7	77.7	30.039	0.00	0.00	0.000	0.425	84.4	40	57.4	84.6	1405	1	100.0	60
10/07/19	9:00 p	73.6	75.2	73.6	84	68.5	6.0	SSE	6.00	14.0	SSE	73.6	75.7	75.7	30.060	0.00	0.00	0.000	0.358	82.3	38	54.2	81.4	1405	1	100.0	60
10/07/19	10:00 p	72.2	73.6	72.2	87	68.1	0.0	S	0.00	10.0	S	72.2	74.2	74.2	30.065	0.00	0.00	0.000	0.300	82.6	39	55.1	82.0	1405	1	100.0	60
10/07/19	11:00 p	71.5	72.2	71.4	90	68.4	0.0	S	0.00	5.0	S	71.5	73.7	73.7	30.054	0.00	0.00	0.000	0.271	82.4	40	55.7	81.9	1404	1	100.0	60
10/08/19	12:00 a	71.6	71.6	71.4	92	69.2	0.0	NE	0.00	6.0	E	71.6	74.0	74.0	30.049	0.00	0.00	0.000	0.275	80.8	38	52.8	79.6	1405	1	100.0	60
TUESDAY			Temp	Hi	Low	Out	Dew	Wind	Wind	Wind	Hi	Hi	Wind	Heat	THW			Rain	Heat	Cool	In 	In	In 	In 	Wind	Wind	ISS 	Arc.
Date		Time	Out	Temp	Temp	Hum	Pt.	Speed	Dir	Run	Speed	Dir	Chill	Index	Index	Bar  	Rain	Rate	D-D 	D-D 	Temp	Hum	Dew	Heat	Samp	Tx 	Recept	Int.
10/08/19	1:00 a	72.1	72.1	71.5	93	70.0	0.0	NE	0.00	6.0	NE	72.1	74.7	74.7	30.032	0.00	0.00	0.000	0.296	81.3	39	54.0	80.3	1403	1	100.0	60
10/08/19	2:00 a	72.2	72.2	72.1	93	70.1	0.0	NE	0.00	6.0	NE	72.2	74.8	74.8	30.029	0.00	0.00	0.000	0.300	81.3	40	54.7	80.4	1405	1	100.0	60
10/08/19	3:00 a	72.1	72.2	72.1	93	70.0	4.0	SSE	4.00	7.0	SSE	72.1	74.7	74.7	30.013	0.00	0.00	0.000	0.296	81.2	40	54.6	80.3	1405	1	100.0	60
10/08/19	4:00 a	71.3	72.1	71.3	90	68.2	4.0	E	4.00	7.0	NE	71.3	73.5	73.5	30.019	0.00	0.00	0.000	0.263	81.2	41	55.3	80.4	1405	1	100.0	60
10/08/19	5:00 a	69.5	71.3	69.5	94	67.7	4.0	NE	4.00	10.0	NE	69.5	71.8	71.8	30.013	0.02	0.04	0.000	0.188	81.0	41	55.1	80.1	1405	1	100.0	60
10/08/19	6:00 a	69.4	69.5	69.2	93	67.3	6.0	NE	6.00	14.0	NNE	69.4	71.6	71.6	30.014	0.00	0.00	0.000	0.183	81.0	41	55.1	80.1	1405	1	100.0	60
10/08/19	7:00 a	68.9	69.6	68.9	95	67.4	7.0	N	7.00	20.0	NNW	68.9	71.2	71.2	30.023	0.00	0.00	0.000	0.163	80.1	40	53.6	79.1	1405	1	100.0	60
10/08/19	8:00 a	68.5	69.0	68.5	95	67.0	12.0	NE	12.00	24.0	ENE	65.4	70.6	67.5	30.028	0.00	0.00	0.000	0.146	80.3	42	55.1	79.5	1405	1	100.0	60
10/08/19	9:00 a	68.2	68.5	68.1	97	67.3	14.0	NE	14.00	29.0	NE	64.2	70.3	66.3	30.022	0.01	0.00	0.000	0.133	80.6	44	56.7	80.1	1405	1	100.0	60
10/08/19	10:00 a	68.4	68.5	68.2	96	67.2	15.0	NE	15.00	28.0	NE	64.0	70.5	66.1	30.031	0.00	0.00	0.000	0.142	80.0	41	54.2	79.1	1405	1	100.0	60
10/08/19	11:00 a	69.0	69.3	68.4	94	67.2	15.0	NE	15.00	28.0	NNE	64.7	71.2	66.9	30.040	0.00	0.00	0.000	0.167	80.5	43	55.9	79.9	1404	1	100.0	60
10/08/19	12:00 p	69.0	69.0	68.6	95	67.5	15.0	NE	15.00	28.0	ENE	64.7	71.3	67.0	30.036	0.00	0.00	0.000	0.167	80.7	45	57.4	80.3	1405	1	100.0	60
10/08/19	1:00 p	68.5	69.1	68.4	96	67.3	13.0	NE	13.00	29.0	NE	64.9	70.7	67.1	30.029	0.02	0.06	0.000	0.146	80.9	45	57.6	80.5	1405	1	100.0	60
10/08/19	2:00 p	68.5	68.6	68.4	96	67.3	13.0	NE	13.00	25.0	NE	64.9	70.7	67.1	30.008	0.01	0.00	0.000	0.146	80.0	45	56.7	79.6	1405	1	100.0	60
10/08/19	3:00 p	68.7	68.8	68.5	94	66.9	13.0	NE	13.00	27.0	NNE	65.1	70.8	67.2	30.008	0.00	0.00	0.000	0.154	80.4	46	57.7	80.1	1405	1	100.0	60
10/08/19	4:00 p	67.1	68.7	67.1	97	66.2	12.0	NE	12.00	27.0	NNW	63.9	68.8	65.6	30.007	0.02	0.00	0.000	0.087	80.4	46	57.7	80.1	1405	1	100.0	60
10/08/19	5:00 p	66.7	67.1	66.6	96	65.5	13.0	NE	13.00	24.0	NW	62.9	68.3	64.5	30.009	0.00	0.00	0.000	0.071	80.3	47	58.2	80.1	1405	1	100.0	60
10/08/19	6:00 p	66.1	66.9	66.1	96	64.9	13.0	NE	13.00	24.0	ENE	62.2	67.5	63.6	30.032	0.00	0.00	0.000	0.046	80.2	47	58.1	80.0	1405	1	100.0	60
10/08/19	7:00 p	64.2	66.1	64.2	96	63.0	13.0	NE	13.00	27.0	NE	60.0	65.3	61.1	30.039	0.02	0.00	0.033	0.000	79.9	48	58.5	79.8	1405	1	100.0	60
10/08/19	8:00 p	65.1	65.1	64.2	93	63.0	14.0	NE	14.00	30.0	NE	60.7	66.2	61.8	30.056	0.00	0.00	0.000	0.004	79.7	48	58.3	79.6	1405	1	100.0	60
10/08/19	9:00 p	64.5	65.1	64.5	94	62.7	13.0	NE	13.00	25.0	NE	60.4	65.6	61.5	30.072	0.00	0.00	0.021	0.000	79.7	48	58.3	79.6	1405	1	100.0	60
10/08/19	10:00 p	63.6	64.5	63.6	97	62.7	11.0	N	11.00	24.0	ENE	60.5	64.6	61.5	30.072	0.02	0.00	0.058	0.000	79.3	48	57.9	79.3	1405	1	100.0	60
10/08/19	11:00 p	63.5	63.6	63.1	95	62.0	11.0	NE	11.00	22.0	N	60.4	64.4	61.3	30.075	0.00	0.00	0.063	0.000	79.2	48	57.8	79.2	1405	1	100.0	60
10/09/19	12:00 a	64.5	64.5	63.5	91	61.8	12.0	NE	12.00	26.0	NE	60.9	65.4	61.8	30.075	0.00	0.00	0.021	0.000	79.0	48	57.6	79.0	1405	1	100.0	60
WEDNESDAY		Temp	Hi	Low	Out	Dew	Wind	Wind	Wind	Hi	Hi	Wind	Heat	THW			Rain	Heat	Cool	In 	In	In 	In 	Wind	Wind	ISS 	Arc.
Date		Time	Out	Temp	Temp	Hum	Pt.	Speed	Dir	Run	Speed	Dir	Chill	Index	Index	Bar  	Rain	Rate	D-D 	D-D 	Temp	Hum	Dew	Heat	Samp	Tx 	Recept	Int.
10/09/19	1:00 a	64.7	64.8	64.5	90	61.7	13.0	NE	13.00	27.0	ENE	60.6	65.6	61.5	30.063	0.00	0.00	0.013	0.000	78.8	48	57.4	78.8	1404	1	100.0	60
10/09/19	2:00 a	64.8	64.8	64.7	90	61.8	12.0	NE	12.00	25.0	ENE	61.3	65.8	62.3	30.063	0.00	0.00	0.008	0.000	78.4	48	57.1	78.3	1404	1	100.0	60
10/09/19	3:00 a	65.0	65.0	64.7	91	62.3	12.0	NE	12.00	24.0	ENE	61.5	66.0	62.5	30.058	0.00	0.00	0.000	0.000	78.4	48	57.1	78.3	1405	1	100.0	60
10/09/19	4:00 a	65.3	65.3	64.9	90	62.3	12.0	NE	12.00	22.0	NNW	61.8	66.4	62.9	30.052	0.00	0.00	0.000	0.013	78.2	48	56.9	78.1	1405	1	100.0	60
10/09/19	5:00 a	65.6	65.7	65.3	90	62.6	11.0	NE	11.00	20.0	NE	62.8	66.8	64.0	30.065	0.00	0.00	0.000	0.025	78.2	48	56.9	78.1	1405	1	100.0	60
10/09/19	6:00 a	65.7	65.7	65.7	90	62.7	11.0	NE	11.00	22.0	NE	62.9	66.9	64.1	30.069	0.00	0.00	0.000	0.029	78.0	49	57.3	77.9	1405	1	100.0	60
10/09/19	7:00 a	65.4	65.8	65.4	90	62.4	12.0	NE	12.00	24.0	NW	61.9	66.5	63.0	30.084	0.00	0.00	0.000	0.017	78.1	49	57.4	78.0	1405	1	100.0	60
10/09/19	8:00 a	64.8	65.4	64.7	92	62.4	12.0	NE	12.00	22.0	NE	61.3	65.8	62.3	30.098	0.00	0.00	0.008	0.000	78.2	49	57.5	78.2	1405	1	100.0	60
10/09/19	9:00 a	64.9	65.1	64.8	91	62.2	11.0	NE	11.00	20.0	NE	62.0	65.9	63.0	30.117	0.00	0.00	0.004	0.000	78.3	49	57.6	78.3	1405	1	100.0	60
10/09/19	10:00 a	64.0	64.9	64.0	94	62.2	10.0	NNW	10.00	22.0	NNW	61.6	65.0	62.6	30.132	0.00	0.00	0.042	0.000	78.5	49	57.7	78.5	1405	1	100.0	60
10/09/19	11:00 a	62.7	64.0	62.7	96	61.5	11.0	NNW	11.00	22.0	NW	59.4	63.5	60.2	30.137	0.00	0.00	0.096	0.000	78.5	49	57.7	78.5	1405	1	100.0	60
10/09/19	12:00 p	63.1	63.1	62.6	95	61.6	11.0	N	11.00	23.0	ENE	59.9	63.9	60.7	30.137	0.01	0.00	0.079	0.000	78.4	49	57.7	78.4	1405	1	100.0	60
10/09/19	1:00 p	64.2	64.2	63.1	91	61.5	13.0	NE	13.00	25.0	NNW	60.0	65.1	60.9	30.133	0.00	0.00	0.033	0.000	78.4	49	57.7	78.4	1405	1	100.0	60
10/09/19	2:00 p	64.3	64.4	64.1	90	61.3	12.0	NNW	12.00	25.0	NW	60.7	65.2	61.6	30.120	0.00	0.00	0.029	0.000	78.4	49	57.7	78.4	1404	1	100.0	60
10/09/19	3:00 p	64.5	64.5	64.1	89	61.2	12.0	NNW	12.00	27.0	NNW	60.9	65.4	61.8	30.120	0.00	0.00	0.021	0.000	78.4	49	57.7	78.4	1405	1	100.0	60
10/09/19	4:00 p	63.8	64.6	63.8	92	61.4	12.0	NNW	12.00	23.0	NW	60.1	64.7	61.0	30.117	0.00	0.00	0.050	0.000	78.4	49	57.7	78.4	1405	1	100.0	60
10/09/19	5:00 p	63.9	63.9	63.5	93	61.8	10.0	NNW	10.00	26.0	NNW	61.5	64.8	62.4	30.108	0.00	0.00	0.046	0.000	78.4	49	57.7	78.4	1405	1	100.0	60
10/09/19	6:00 p	63.1	63.9	63.1	94	61.3	7.0	N	7.00	20.0	NE	63.0	63.9	63.8	30.122	0.00	0.00	0.079	0.000	78.4	49	57.7	78.4	1405	1	100.0	60
10/09/19	7:00 p	62.9	63.2	62.9	92	60.5	10.0	NE	10.00	19.0	E	60.4	63.6	61.1	30.120	0.00	0.00	0.087	0.000	78.0	49	57.3	77.9	1405	1	100.0	60
10/09/19	8:00 p	63.2	63.2	62.9	89	59.9	10.0	NE	10.00	19.0	ENE	60.7	63.9	61.4	30.133	0.00	0.00	0.075	0.000	77.7	49	57.0	77.6	1405	1	100.0	60
10/09/19	9:00 p	63.2	63.3	63.2	86	58.9	11.0	NE	11.00	20.0	ENE	60.0	63.8	60.6	30.145	0.00	0.00	0.075	0.000	77.5	49	56.8	77.3	1405	1	100.0	60
10/09/19	10:00 p	62.4	63.3	62.4	88	58.8	11.0	NE	11.00	21.0	NE	59.1	62.9	59.6	30.153	0.00	0.00	0.108	0.000	77.3	49	56.6	77.1	1405	1	100.0	60
10/09/19	11:00 p	61.6	62.4	61.6	90	58.6	11.0	NE	11.00	22.0	NE	58.2	62.1	58.7	30.165	0.00	0.00	0.142	0.000	77.1	49	56.5	76.9	1405	1	100.0	60
10/10/19	12:00 a	61.3	61.6	61.0	91	58.7	10.0	NE	10.00	22.0	NE	58.5	61.8	59.0	30.162	0.00	0.00	0.154	0.000	76.8	49	56.2	76.6	1405	1	100.0	60
THURSDAY			Temp	Hi	Low	Out	Dew	Wind	Wind	Wind	Hi	Hi	Wind	Heat	THW			Rain	Heat	Cool	In 	In	In 	In 	Wind	Wind	ISS 	Arc.
Date		Time	Out	Temp	Temp	Hum	Pt.	Speed	Dir	Run	Speed	Dir	Chill	Index	Index	Bar  	Rain	Rate	D-D 	D-D 	Temp	Hum	Dew	Heat	Samp	Tx 	Recept	Int.
10/10/19	1:00 a	61.5	61.6	61.2	90	58.5	10.0	NE	10.00	19.0	E	58.7	62.0	59.2	30.158	0.00	0.00	0.146	0.000	76.7	49	56.1	76.5	1403	1	100.0	60
10/10/19	2:00 a	61.3	61.6	61.3	93	59.3	7.0	NE	7.00	18.0	ENE	60.8	61.8	61.3	30.155	0.01	0.00	0.154	0.000	76.4	49	55.8	76.2	1405	1	100.0	60
10/10/19	3:00 a	60.7	61.3	60.7	97	59.8	7.0	NNW	7.00	20.0	NNW	60.0	61.3	60.6	30.146	0.01	0.00	0.179	0.000	76.3	49	55.7	76.2	1405	1	100.0	60
10/10/19	4:00 a	59.6	60.7	59.6	97	58.7	7.0	NNW	7.00	17.0	NW	58.7	60.1	59.2	30.150	0.01	0.00	0.225	0.000	76.2	49	55.6	76.1	1405	1	100.0	60
10/10/19	5:00 a	59.1	59.6	59.1	98	58.5	10.0	NNW	10.00	20.0	NNW	55.9	59.6	56.4	30.152	0.01	0.00	0.246	0.000	75.9	49	55.4	75.8	1405	1	100.0	60
10/10/19	6:00 a	58.8	59.1	58.8	98	58.2	7.0	NNW	7.00	17.0	NW	57.8	59.2	58.2	30.151	0.02	0.00	0.258	0.000	75.6	49	55.1	75.6	1405	1	100.0	60
10/10/19	7:00 a	58.7	58.9	58.7	99	58.4	10.0	NNW	10.00	22.0	NNW	55.4	59.2	55.9	30.157	0.04	0.05	0.262	0.000	75.4	49	54.9	75.4	1405	1	100.0	60
10/10/19	8:00 a	58.3	58.7	58.3	99	58.0	10.0	NNW	10.00	21.0	NW	55.0	58.7	55.4	30.166	0.02	0.04	0.279	0.000	77.3	50	57.2	77.2	1405	1	100.0	60
10/10/19	9:00 a	57.6	58.4	57.6	98	57.0	10.0	NNW	10.00	20.0	N	54.2	57.9	54.5	30.179	0.01	0.00	0.308	0.000	77.6	49	56.9	77.4	1405	1	100.0	60
10/10/19	10:00 a	57.8	57.8	57.5	98	57.2	10.0	NNW	10.00	19.0	NW	54.4	58.2	54.8	30.186	0.00	0.00	0.300	0.000	77.3	49	56.6	77.1	1405	1	100.0	60
10/10/19	11:00 a	58.5	58.5	57.8	96	57.4	10.0	NNW	10.00	18.0	NNW	55.2	58.9	55.6	30.193	0.00	0.00	0.271	0.000	77.2	49	56.6	77.0	1405	1	100.0	60
10/10/19	12:00 p	60.3	60.3	58.5	93	58.3	12.0	NNW	12.00	21.0	NNW	56.1	60.7	56.5	30.173	0.00	0.00	0.196	0.000	77.5	50	57.4	77.4	1405	1	100.0	60
10/10/19	1:00 p	62.3	62.3	60.3	89	59.0	12.0	NNW	12.00	21.0	NW	58.4	62.8	58.9	30.150	0.00	0.00	0.113	0.000	77.9	50	57.8	77.9	1405	1	100.0	60
10/10/19	2:00 p	65.4	65.4	62.3	82	59.8	12.0	NNW	12.00	22.0	NW	61.9	66.2	62.7	30.118	0.00	0.00	0.000	0.017	78.7	49	57.9	78.7	1404	1	100.0	60
10/10/19	3:00 p	68.2	68.2	65.4	76	60.3	12.0	ENE	12.00	25.0	ENE	65.1	69.2	66.1	30.113	0.00	0.00	0.000	0.133	79.9	49	59.0	79.9	1405	1	100.0	60
10/10/19	4:00 p	68.6	68.6	68.1	75	60.4	12.0	NE	12.00	23.0	ESE	65.5	69.6	66.5	30.097	0.00	0.00	0.000	0.150	81.5	48	59.9	81.6	1406	1	100.0	60
10/10/19	5:00 p	69.3	69.3	68.6	72	59.9	11.0	NE	11.00	19.0	NE	66.7	69.8	67.2	30.090	0.00	0.00	0.000	0.179	82.3	48	60.6	82.8	1404	1	100.0	60
10/10/19	6:00 p	69.1	69.4	69.1	70	58.9	7.0	NE	7.00	19.0	ENE	69.1	69.5	69.5	30.092	0.00	0.00	0.000	0.171	82.2	48	60.6	82.6	1405	1	100.0	60
10/10/19	7:00 p	67.8	69.1	67.8	75	59.6	5.0	ENE	5.00	12.0	ENE	67.8	68.7	68.7	30.089	0.00	0.00	0.000	0.117	81.6	48	60.0	81.8	1405	1	100.0	60
10/10/19	8:00 p	64.7	67.8	64.7	81	58.7	4.0	ENE	4.00	5.0	ENE	64.7	65.4	65.4	30.082	0.00	0.00	0.013	0.000	80.7	48	59.2	80.6	1405	1	100.0	60
10/10/19	9:00 p	61.9	64.7	61.9	87	58.0	4.0	ENE	4.00	6.0	ENE	61.9	62.3	62.3	30.085	0.00	0.00	0.129	0.000	80.0	48	58.5	79.9	1405	1	100.0	60
10/10/19	10:00 p	62.2	62.2	61.0	86	58.0	5.0	NNW	5.00	15.0	NNW	62.2	62.6	62.6	30.088	0.00	0.00	0.117	0.000	79.3	48	57.9	79.3	1405	1	100.0	60
10/10/19	11:00 p	65.7	65.7	62.2	73	56.8	6.0	NE	6.00	18.0	NE	65.7	66.0	66.0	30.088	0.00	0.00	0.000	0.029	81.0	46	58.3	80.7	1405	1	100.0	60
10/11/19	12:00 a	65.2	66.4	65.2	72	55.9	5.0	N	5.00	16.0	NE	65.2	65.4	65.4	30.094	0.00	0.00	0.000	0.008	79.7	47	57.7	79.5	1405	1	100.0	60
FRIDAY			Temp	Hi	Low	Out	Dew	Wind	Wind	Wind	Hi	Hi	Wind	Heat	THW			Rain	Heat	Cool	In 	In	In 	In 	Wind	Wind	ISS 	Arc.
Date		Time	Out	Temp	Temp	Hum	Pt.	Speed	Dir	Run	Speed	Dir	Chill	Index	Index	Bar  	Rain	Rate	D-D 	D-D 	Temp	Hum	Dew	Heat	Samp	Tx 	Recept	Int.
10/11/19	1:00 a	65.1	65.2	64.8	64	52.6	6.0	NE	6.00	16.0	NE	65.1	64.7	64.7	30.080	0.00	0.00	0.000	0.004	78.9	48	57.5	78.9	1404	1	100.0	60
10/11/19	2:00 a	64.8	65.2	64.8	64	52.3	6.0	NE	6.00	13.0	NNE	64.8	64.4	64.4	30.069	0.00	0.00	0.008	0.000	78.3	48	57.0	78.2	1404	1	100.0	60
10/11/19	3:00 a	64.6	64.8	64.4	56	48.5	7.0	NE	7.00	18.0	NE	64.6	63.4	63.4	30.061	0.00	0.00	0.017	0.000	77.9	47	56.0	77.6	1405	1	100.0	60
10/11/19	4:00 a	63.0	64.6	63.0	66	51.5	6.0	NE	6.00	16.0	ENE	63.0	62.5	62.5	30.072	0.00	0.00	0.083	0.000	77.4	47	55.6	77.1	1405	1	100.0	60
10/11/19	5:00 a	60.1	63.0	60.0	74	51.8	4.0	NNW	4.00	10.0	N	60.1	59.7	59.7	30.065	0.00	0.00	0.204	0.000	77.0	47	55.2	76.6	1405	1	100.0	60
10/11/19	6:00 a	57.7	60.0	57.7	85	53.2	4.0	NNW	4.00	6.0	NNW	57.7	57.6	57.6	30.066	0.00	0.00	0.304	0.000	76.6	47	54.9	76.3	1405	1	100.0	60
10/11/19	7:00 a	56.1	57.7	56.1	88	52.6	4.0	NNW	4.00	6.0	NNW	55.9	56.1	55.9	30.069	0.00	0.00	0.371	0.000	76.4	47	54.7	76.1	1405	1	100.0	60
10/11/19	8:00 a	55.1	56.1	55.1	91	52.5	4.0	NW	4.00	7.0	NNW	54.7	55.2	54.8	30.068	0.00	0.00	0.413	0.000	76.0	47	54.3	75.8	1405	1	100.0	60
10/11/19	9:00 a	59.8	59.8	55.1	84	55.0	6.0	NW	6.00	15.0	NW	59.4	59.8	59.4	30.078	0.00	0.00	0.217	0.000	76.5	47	54.8	76.2	1405	1	100.0	60
10/11/19	10:00 a	63.5	63.5	59.8	72	54.3	11.0	NNW	11.00	20.0	NW	60.4	63.4	60.3	30.087	0.00	0.00	0.063	0.000	77.7	46	55.3	77.3	1405	1	100.0	60
10/11/19	11:00 a	65.0	65.0	63.5	66	53.4	12.0	NNW	12.00	22.0	NNW	61.5	64.8	61.3	30.086	0.00	0.00	0.000	0.000	79.1	46	56.5	78.9	1405	1	100.0	60
10/11/19	12:00 p	65.9	65.9	65.0	62	52.5	12.0	NNW	12.00	22.0	N	62.5	65.4	62.0	30.077	0.00	0.00	0.000	0.038	80.3	45	57.0	79.9	1405	1	100.0	60
10/11/19	1:00 p	66.7	66.7	65.9	57	51.0	11.0	NNW	11.00	20.0	NNW	64.1	65.9	63.3	30.059	0.00	0.00	0.000	0.071	81.3	45	57.9	81.0	1405	1	100.0	60
10/11/19	2:00 p	68.1	68.1	66.7	51	49.3	10.0	NNW	10.00	18.0	WNW	66.0	66.9	64.8	30.029	0.00	0.00	0.000	0.129	81.9	45	58.5	81.8	1405	1	100.0	60
10/11/19	3:00 p	69.2	69.2	68.1	49	49.2	10.0	NNW	10.00	19.0	NNW	67.1	67.6	65.5	30.017	0.00	0.00	0.000	0.175	83.0	45	59.5	83.5	1405	1	100.0	60
10/11/19	4:00 p	69.0	69.8	69.0	60	54.5	11.0	NNW	11.00	20.0	N	66.4	68.4	65.8	30.013	0.00	0.00	0.000	0.167	84.3	44	60.0	85.2	1404	1	100.0	60
10/11/19	5:00 p	67.5	68.9	67.5	65	55.3	11.0	NE	11.00	20.0	NE	64.9	67.6	65.0	30.018	0.00	0.00	0.000	0.104	84.7	44	60.4	85.6	1406	1	100.0	60
10/11/19	6:00 p	67.1	67.5	67.1	66	55.4	10.0	NE	10.00	22.0	E	65.1	67.2	65.2	30.022	0.00	0.00	0.000	0.087	84.2	44	59.9	85.1	1404	1	100.0	60
10/11/19	7:00 p	65.4	67.1	65.4	67	54.2	6.0	NE	6.00	17.0	ENE	65.4	65.3	65.3	30.023	0.00	0.00	0.000	0.017	83.3	44	59.1	83.8	1405	1	100.0	60
10/11/19	8:00 p	63.4	65.4	63.4	73	54.6	4.0	ENE	4.00	10.0	ENE	63.4	63.3	63.3	30.021	0.00	0.00	0.067	0.000	82.4	44	58.3	82.4	1405	1	100.0	60
10/11/19	9:00 p	60.7	63.4	60.7	79	54.1	0.0	ENE	0.00	5.0	ENE	60.7	60.6	60.6	30.022	0.00	0.00	0.179	0.000	81.5	44	57.5	81.1	1405	1	100.0	60
10/11/19	10:00 p	58.2	60.7	58.2	84	53.4	0.0	ENE	0.00	5.0	ENE	58.2	58.1	58.1	30.030	0.00	0.00	0.283	0.000	80.6	45	57.3	80.2	1405	1	100.0	60
10/11/19	11:00 p	56.4	58.3	56.4	87	52.6	0.0	ENE	0.00	5.0	ENE	56.4	56.4	56.4	30.030	0.00	0.00	0.358	0.000	79.6	45	56.4	79.2	1405	1	100.0	60
10/12/19	12:00 a	54.8	56.4	54.7	89	51.6	0.0	ENE	0.00	5.0	ENE	54.8	54.9	54.9	30.018	0.00	0.00	0.425	0.000	78.8	45	55.7	78.5	1405	1	100.0	60
SATURDAY		Temp	Hi	Low	Out	Dew	Wind	Wind	Wind	Hi	Hi	Wind	Heat	THW			Rain	Heat	Cool	In 	In	In 	In 	Wind	Wind	ISS 	Arc.
Date		Time	Out	Temp	Temp	Hum	Pt.	Speed	Dir	Run	Speed	Dir	Chill	Index	Index	Bar  	Rain	Rate	D-D 	D-D 	Temp	Hum	Dew	Heat	Samp	Tx 	Recept	Int.
10/12/19	1:00 a	53.4	54.8	53.4	92	51.1	0.0	ENE	0.00	4.0	ENE	53.4	53.6	53.6	30.015	0.00	0.00	0.483	0.000	78.2	45	55.1	77.8	1404	1	100.0	60
10/12/19	2:00 a	52.3	53.4	52.3	93	50.3	0.0	ENE	0.00	5.0	ENE	52.3	52.5	52.5	30.014	0.00	0.00	0.529	0.000	77.3	45	54.3	76.8	1405	1	100.0	60
10/12/19	3:00 a	51.8	52.3	51.8	94	50.1	0.0	ENE	0.00	6.0	ENE	51.8	52.1	52.1	30.000	0.00	0.00	0.550	0.000	76.6	45	53.7	76.1	1404	1	100.0	60
10/12/19	4:00 a	51.2	51.8	51.2	95	49.8	0.0	ENE	0.00	5.0	ENE	51.2	51.6	51.6	29.989	0.00	0.00	0.575	0.000	75.9	45	53.0	75.5	1406	1	100.0	60
10/12/19	5:00 a	50.4	51.2	50.4	95	49.0	0.0	ENE	0.00	4.0	ENE	50.4	50.9	50.9	29.978	0.00	0.00	0.608	0.000	75.4	45	52.6	75.1	1404	1	100.0	60
10/12/19	6:00 a	49.9	50.5	49.9	96	48.8	0.0	ENE	0.00	5.0	ENE	49.9	50.4	50.4	29.992	0.00	0.00	0.629	0.000	74.8	45	52.0	74.4	1405	1	100.0	60
10/12/19	7:00 a	49.9	50.1	49.9	96	48.8	0.0	ENE	0.00	4.0	ENE	49.9	50.4	50.4	29.998	0.00	0.00	0.629	0.000	76.8	44	53.2	76.3	1405	1	100.0	60
10/12/19	8:00 a	49.8	49.9	49.7	97	49.0	0.0	ENE	0.00	5.0	ENE	49.8	50.4	50.4	30.013	0.00	0.00	0.633	0.000	76.5	44	53.0	76.0	1405	1	100.0	60
10/12/19	9:00 a	53.8	53.8	49.8	99	53.5	4.0	WNW	4.00	7.0	W	53.3	54.2	53.7	30.019	0.00	0.00	0.467	0.000	77.4	43	53.1	76.8	1405	1	100.0	60
10/12/19	10:00 a	57.7	57.8	53.9	98	57.1	4.0	W	4.00	7.0	W	57.7	58.0	58.0	30.014	0.00	0.00	0.304	0.000	77.3	44	53.7	76.8	1405	1	100.0	60
10/12/19	11:00 a	61.8	61.8	57.8	86	57.6	4.0	W	4.00	7.0	W	61.8	62.1	62.1	30.016	0.00	0.00	0.133	0.000	79.5	43	55.0	78.9	1405	1	100.0	60
10/12/19	12:00 p	66.3	66.3	61.8	72	57.0	5.0	SW	5.00	12.0	S	66.3	66.7	66.7	30.000	0.00	0.00	0.000	0.054	80.7	43	56.1	80.1	1405	1	100.0	60
10/12/19	1:00 p	69.9	70.0	66.3	66	58.0	5.0	S	5.00	14.0	SSE	69.9	69.7	69.7	29.975	0.00	0.00	0.000	0.204	82.3	43	57.6	82.1	1405	1	100.0	60
10/12/19	2:00 p	73.4	73.4	70.0	61	59.1	6.0	S	6.00	13.0	SE	73.4	74.0	74.0	29.949	0.00	0.00	0.000	0.350	83.0	43	58.2	83.2	1405	1	100.0	60
10/12/19	3:00 p	75.7	75.7	73.4	55	58.4	6.0	S	6.00	16.0	S	75.7	76.1	76.1	29.943	0.00	0.00	0.000	0.446	84.3	44	60.0	85.2	1405	1	100.0	60
10/12/19	4:00 p	76.9	76.9	75.7	56	60.0	5.0	SW	5.00	13.0	SSW	76.9	77.3	77.3	29.939	0.00	0.00	0.000	0.496	85.9	44	61.5	86.8	1404	1	100.0	60
10/12/19	5:00 p	77.9	77.9	76.9	54	59.9	5.0	S	5.00	12.0	SSE	77.9	78.3	78.3	29.937	0.00	0.00	0.000	0.538	86.8	44	62.3	88.1	1406	1	100.0	60
10/12/19	6:00 p	78.1	78.2	77.9	56	61.1	4.0	S	4.00	10.0	S	78.1	78.7	78.7	29.937	0.00	0.00	0.000	0.546	86.8	44	62.3	88.1	1404	1	100.0	60
10/12/19	7:00 p	75.8	78.1	75.8	65	63.2	4.0	S	4.00	11.0	SSE	75.8	77.0	77.0	29.953	0.00	0.00	0.000	0.450	86.2	44	61.7	87.2	1405	1	100.0	60
10/12/19	8:00 p	71.7	75.8	71.7	72	62.2	4.0	SSE	4.00	10.0	SSE	71.7	72.4	72.4	29.972	0.00	0.00	0.000	0.279	85.5	44	61.1	86.4	1405	1	100.0	60
10/12/19	9:00 p	68.7	71.7	68.7	78	61.6	4.0	SSE	4.00	10.0	SSE	68.7	70.0	70.0	29.986	0.00	0.00	0.000	0.154	84.8	44	60.5	85.6	1405	1	100.0	60
10/12/19	10:00 p	67.3	68.7	67.3	82	61.6	4.0	SSE	4.00	6.0	SSE	67.3	68.5	68.5	29.993	0.00	0.00	0.000	0.096	84.1	44	59.8	85.0	1405	1	100.0	60
10/12/19	11:00 p	66.4	67.4	66.4	84	61.4	0.0	SSE	0.00	5.0	SSE	66.4	67.5	67.5	29.996	0.00	0.00	0.000	0.058	83.5	44	59.3	84.1	1405	1	100.0	60
10/13/19	12:00 a	65.6	66.5	65.6	87	61.6	0.0	SSE	0.00	5.0	SSE	65.6	66.6	66.6	29.992	0.00	0.00	0.000	0.025	82.4	45	58.9	82.5	1405	1	100.0	60
SUNDAY			Temp	Hi	Low	Out	Dew	Wind	Wind	Wind	Hi	Hi	Wind	Heat	THW			Rain	Heat	Cool	In 	In	In 	In 	Wind	Wind	ISS 	Arc.
Date		Time	Out	Temp	Temp	Hum	Pt.	Speed	Dir	Run	Speed	Dir	Chill	Index	Index	Bar  	Rain	Rate	D-D 	D-D 	Temp	Hum	Dew	Heat	Samp	Tx 	Recept	Int.
10/13/19	1:00 a	64.5	65.6	64.5	90	61.5	0.0	SSE	0.00	5.0	SSE	64.5	65.4	65.4	29.994	0.00	0.00	0.021	0.000	81.7	45	58.3	81.5	1404	1	100.0	60
10/13/19	2:00 a	63.6	64.5	63.6	92	61.2	0.0	SSE	0.00	5.0	SSE	63.6	64.4	64.4	29.988	0.00	0.00	0.058	0.000	81.0	46	58.3	80.7	1405	1	100.0	60
10/13/19	3:00 a	62.5	63.6	62.5	93	60.4	0.0	SSE	0.00	4.0	SSE	62.5	63.2	63.2	29.990	0.00	0.00	0.104	0.000	80.5	46	57.8	80.2	1405	1	100.0	60
10/13/19	4:00 a	61.3	62.5	61.3	93	59.3	0.0	---	0.00	0.0	---	61.3	61.8	61.8	29.986	0.00	0.00	0.154	0.000	79.9	46	57.3	79.6	1404	1	100.0	60
10/13/19	5:00 a	60.3	61.3	60.3	94	58.6	0.0	SSE	0.00	5.0	SSE	60.3	60.7	60.7	30.002	0.00	0.00	0.196	0.000	79.4	46	56.8	79.2	1406	1	100.0	60
10/13/19	6:00 a	59.8	60.3	59.8	95	58.4	0.0	SSE	0.00	4.0	SSE	59.8	60.2	60.2	30.020	0.00	0.00	0.217	0.000	78.9	46	56.4	78.7	1404	1	100.0	60
10/13/19	7:00 a	60.0	60.0	59.7	97	59.1	0.0	SSE	0.00	5.0	SSE	60.0	60.5	60.5	30.032	0.00	0.00	0.208	0.000	78.4	46	55.9	78.1	1405	1	100.0	60
10/13/19	8:00 a	60.9	60.9	60.0	97	60.0	4.0	SSE	4.00	6.0	SSE	60.9	61.5	61.5	30.041	0.00	0.00	0.171	0.000	78.7	46	56.2	78.5	1405	1	100.0	60
10/13/19	9:00 a	63.4	63.4	60.9	98	62.8	0.0	SSE	0.00	6.0	SSE	63.4	64.4	64.4	30.054	0.00	0.00	0.067	0.000	79.0	47	57.0	78.9	1405	1	100.0	60
10/13/19	10:00 a	66.5	66.5	63.4	96	65.3	4.0	SSE	4.00	10.0	NE	66.5	68.0	68.0	30.051	0.00	0.00	0.000	0.063	80.2	46	57.5	79.9	1405	1	100.0	60
10/13/19	11:00 a	70.3	70.3	66.5	85	65.6	5.0	ENE	5.00	11.0	NE	70.3	71.9	71.9	30.048	0.00	0.00	0.000	0.221	82.2	45	58.7	82.2	1405	1	100.0	60
10/13/19	12:00 p	73.4	73.4	70.3	78	66.1	6.0	S	6.00	12.0	S	73.4	75.2	75.2	30.028	0.00	0.00	0.000	0.350	83.9	45	60.3	84.9	1405	1	100.0	60
10/13/19	1:00 p	77.1	77.1	73.5	71	67.0	6.0	S	6.00	17.0	SW	77.1	79.1	79.1	30.015	0.00	0.00	0.000	0.504	85.4	45	61.6	86.4	1405	1	100.0	60
10/13/19	2:00 p	79.3	79.3	77.1	67	67.4	6.0	SW	6.00	17.0	WSW	79.3	81.3	81.3	29.988	0.00	0.00	0.000	0.596	86.5	46	63.3	88.1	1405	1	100.0	60
10/13/19	3:00 p	80.0	80.1	79.3	64	66.7	6.0	SW	6.00	17.0	SW	80.0	81.9	81.9	29.988	0.00	0.00	0.000	0.625	86.8	46	63.5	88.6	1405	1	100.0	60
10/13/19	4:00 p	77.8	80.0	77.8	70	67.2	6.0	SW	6.00	17.0	SW	77.8	79.8	79.8	29.989	0.00	0.00	0.000	0.533	86.8	46	63.5	88.6	1405	1	100.0	60
10/13/19	5:00 p	75.3	77.8	75.3	76	67.2	5.0	SW	5.00	14.0	WNW	75.3	77.6	77.6	29.990	0.00	0.00	0.000	0.429	86.6	47	64.0	88.5	1405	1	100.0	60
10/13/19	6:00 p	74.0	75.3	74.0	79	67.1	6.0	W	6.00	19.0	WNW	74.0	76.0	76.0	29.980	0.00	0.00	0.000	0.375	86.0	47	63.4	87.5	1404	1	100.0	60
10/13/19	7:00 p	73.0	74.0	73.0	82	67.2	0.0	SW	0.00	7.0	SW	73.0	74.9	74.9	29.984	0.00	0.00	0.000	0.333	85.7	47	63.1	87.2	1405	1	100.0	60
10/13/19	8:00 p	70.5	73.0	70.5	90	67.4	5.0	SW	5.00	17.0	SSE	70.5	72.6	72.6	30.017	0.06	0.16	0.000	0.229	85.1	47	62.6	86.4	1405	1	100.0	60
10/13/19	9:00 p	67.6	70.4	67.6	94	65.8	0.0	WSW	0.00	6.0	WSW	67.6	69.3	69.3	30.016	0.11	0.33	0.000	0.108	84.4	47	62.0	85.8	1405	1	100.0	60
10/13/19	10:00 p	66.7	67.6	66.7	96	65.5	4.0	WSW	4.00	10.0	SSE	66.7	68.3	68.3	30.007	0.03	0.06	0.000	0.071	83.8	48	62.0	85.2	1405	1	100.0	60
10/13/19	11:00 p	66.2	66.7	66.2	97	65.3	4.0	SSE	4.00	10.0	S	66.2	67.7	67.7	29.990	0.01	0.00	0.000	0.050	83.2	48	61.5	84.2	1405	1	100.0	60
10/14/19	12:00 a	66.2	66.2	66.1	97	65.3	5.0	SSE	5.00	10.0	S	66.2	67.7	67.7	29.985	0.00	0.00	0.000	0.050	82.8	48	61.1	83.6	1405	1	100.0	60
MONDAY			Temp	Hi	Low	Out	Dew	Wind	Wind	Wind	Hi	Hi	Wind	Heat	THW			Rain	Heat	Cool	In 	In	In 	In 	Wind	Wind	ISS 	Arc.
Date		Time	Out	Temp	Temp	Hum	Pt.	Speed	Dir	Run	Speed	Dir	Chill	Index	Index	Bar  	Rain	Rate	D-D 	D-D 	Temp	Hum	Dew	Heat	Samp	Tx 	Recept	Int.
10/14/19	1:00 a	67.1	67.1	66.2	99	66.8	6.0	S	6.00	18.0	SSE	67.1	68.9	68.9	29.953	0.03	0.05	0.000	0.087	82.7	48	61.0	83.4	1404	1	100.0	60
10/14/19	2:00 a	67.0	67.2	67.0	99	66.7	5.0	SW	5.00	14.0	SW	67.0	68.8	68.8	29.950	0.00	0.00	0.000	0.083	82.4	48	60.7	83.0	1405	1	100.0	60
10/14/19	3:00 a	66.7	67.0	66.6	99	66.4	5.0	SW	5.00	12.0	WSW	66.7	68.4	68.4	29.945	0.00	0.00	0.000	0.071	82.0	49	61.0	82.5	1405	1	100.0	60
10/14/19	4:00 a	66.9	66.9	66.6	99	66.6	4.0	SW	4.00	7.0	SW	66.9	68.6	68.6	29.937	0.00	0.00	0.000	0.079	81.7	49	60.7	82.0	1405	1	100.0	60
10/14/19	5:00 a	67.2	67.2	66.9	99	66.9	4.0	SSW	4.00	7.0	S	67.2	69.0	69.0	29.934	0.00	0.00	0.000	0.092	81.4	49	60.4	81.6	1405	1	100.0	60
10/14/19	6:00 a	67.6	67.6	67.2	100	67.6	4.0	SW	4.00	10.0	SW	67.6	69.5	69.5	29.963	0.00	0.00	0.000	0.108	81.5	49	60.5	81.8	1404	1	100.0	60
10/14/19	7:00 a	67.5	67.7	67.5	99	67.2	4.0	SW	4.00	13.0	WSW	67.5	69.4	69.4	29.982	0.00	0.00	0.000	0.104	81.5	49	60.5	81.8	1405	1	100.0	60
10/14/19	8:00 a	67.3	67.6	67.3	99	67.0	4.0	W	4.00	12.0	W	67.3	69.1	69.1	29.994	0.00	0.00	0.000	0.096	81.4	49	60.4	81.6	1405	1	100.0	60
10/14/19	9:00 a	67.5	67.5	67.3	100	67.5	5.0	SW	5.00	13.0	SW	67.5	69.4	69.4	30.014	0.00	0.00	0.000	0.104	81.4	49	60.4	81.6	1405	1	100.0	60
10/14/19	10:00 a	68.4	68.6	67.5	100	68.4	5.0	SSW	5.00	12.0	WNW	68.4	70.8	70.8	30.028	0.00	0.00	0.000	0.142	81.8	50	61.3	82.3	1405	1	100.0	60
10/14/19	11:00 a	68.3	68.4	68.2	98	67.7	6.0	WNW	6.00	16.0	NW	68.3	70.5	70.5	30.028	0.00	0.00	0.000	0.138	82.4	50	61.9	83.2	1405	1	100.0	60
10/14/19	12:00 p	68.6	68.6	68.1	96	67.4	7.0	NNW	7.00	16.0	NW	68.6	70.8	70.8	30.015	0.00	0.00	0.000	0.150	83.3	50	62.7	84.7	1405	1	100.0	60
10/14/19	1:00 p	70.7	70.7	68.6	89	67.3	7.0	NNW	7.00	16.0	NNW	70.7	72.8	72.8	30.010	0.00	0.00	0.000	0.237	84.4	49	63.2	86.1	1405	1	100.0	60
10/14/19	2:00 p	72.1	72.1	70.7	83	66.6	7.0	NNW	7.00	17.0	NW	72.1	73.8	73.8	29.987	0.00	0.00	0.000	0.296	85.2	49	63.9	86.9	1405	1	100.0	60
10/14/19	3:00 p	72.7	72.8	72.1	80	66.2	7.0	ENE	7.00	15.0	WNW	72.7	74.4	74.4	29.976	0.00	0.00	0.000	0.321	86.2	49	64.8	88.3	1405	1	100.0	60
10/14/19	4:00 p	72.5	72.7	72.3	80	66.0	7.0	ENE	7.00	15.0	ENE	72.5	74.1	74.1	29.973	0.00	0.00	0.000	0.313	87.1	48	65.0	89.6	1405	1	100.0	60
10/14/19	5:00 p	73.0	73.0	72.5	80	66.5	5.0	NW	5.00	11.0	E	73.0	74.8	74.8	29.973	0.00	0.00	0.000	0.333	87.7	48	65.6	90.4	1405	1	100.0	60
10/14/19	6:00 p	72.9	73.1	72.9	81	66.7	4.0	NNW	4.00	7.0	NNW	72.9	74.7	74.7	29.985	0.00	0.00	0.000	0.329	87.3	48	65.2	89.9	1405	1	100.0	60
10/14/19	7:00 p	71.0	72.9	71.0	85	66.3	0.0	NNE	0.00	7.0	N	71.0	72.8	72.8	30.006	0.00	0.00	0.000	0.250	86.5	48	64.5	88.6	1405	1	100.0	60
10/14/19	8:00 p	68.3	71.0	68.3	89	64.9	4.0	SE	4.00	6.0	NNE	68.3	70.1	70.1	30.016	0.00	0.00	0.000	0.138	85.1	46	62.0	86.3	1404	1	100.0	60
10/14/19	9:00 p	66.0	68.3	66.0	92	63.6	5.0	SE	5.00	7.0	SE	66.0	67.3	67.3	30.027	0.00	0.00	0.000	0.042	81.5	41	55.5	80.8	1405	1	100.0	60
10/14/19	10:00 p	64.1	66.0	64.1	94	62.3	4.0	SE	4.00	6.0	SE	64.1	65.1	65.1	30.036	0.00	0.00	0.038	0.000	81.1	43	56.5	80.5	1406	1	100.0	60
10/14/19	11:00 p	62.9	64.1	62.9	95	61.4	4.0	SE	4.00	6.0	SE	62.9	63.7	63.7	30.050	0.00	0.00	0.087	0.000	80.0	43	55.5	79.4	1404	1	100.0	60
10/15/19	12:00 a	61.8	62.9	61.8	96	60.6	0.0	SE	0.00	5.0	SE	61.8	62.5	62.5	30.053	0.00	0.00	0.133	0.000	79.9	44	56.0	79.4	1405	1	100.0	60
TUESDAY			Temp	Hi	Low	Out	Dew	Wind	Wind	Wind	Hi	Hi	Wind	Heat	THW			Rain	Heat	Cool	In 	In	In 	In 	Wind	Wind	ISS 	Arc.
Date		Time	Out	Temp	Temp	Hum	Pt.	Speed	Dir	Run	Speed	Dir	Chill	Index	Index	Bar  	Rain	Rate	D-D 	D-D 	Temp	Hum	Dew	Heat	Samp	Tx 	Recept	Int.
10/15/19	1:00 a	61.8	61.8	61.6	97	60.9	4.0	S	4.00	10.0	SSE	61.8	62.5	62.5	30.062	0.00	0.00	0.133	0.000	79.5	45	56.3	79.1	1404	1	100.0	60
10/15/19	2:00 a	61.7	61.8	61.7	97	60.8	0.0	S	0.00	6.0	S	61.7	62.4	62.4	30.068	0.00	0.00	0.137	0.000	79.2	46	56.6	79.0	1405	1	100.0	60
10/15/19	3:00 a	60.9	61.7	60.9	97	60.0	4.0	S	4.00	6.0	S	60.9	61.5	61.5	30.062	0.00	0.00	0.171	0.000	78.8	47	56.9	78.7	1405	1	100.0	60
10/15/19	4:00 a	59.2	60.9	59.2	97	58.3	0.0	S	0.00	5.0	S	59.2	59.6	59.6	30.062	0.00	0.00	0.242	0.000	78.4	47	56.5	78.2	1405	1	100.0	60
10/15/19	5:00 a	56.9	59.2	56.9	97	56.1	0.0	S	0.00	6.0	S	56.9	57.2	57.2	30.069	0.00	0.00	0.337	0.000	77.9	48	56.6	77.7	1405	1	100.0	60
10/15/19	6:00 a	54.4	56.9	54.4	96	53.3	0.0	S	0.00	4.0	S	54.4	54.6	54.6	30.084	0.00	0.00	0.442	0.000	77.6	48	56.4	77.4	1405	1	100.0	60

			Temp	Hi	Low	Out	Dew	Wind	Wind	Wind	Hi	Hi	Wind	Heat	THW			Rain	Heat	Cool	In 	In	In 	In 	Wind	Wind	ISS 	Arc.
Date		Time	Out	Temp	Temp	Hum	Pt.	Speed	Dir	Run	Speed	Dir	Chill	Index	Index	Bar  	Rain	Rate	D-D 	D-D 	Temp	Hum	Dew	Heat	Samp	Tx 	Recept	Int.
-----------------------------------------------------------------------------------------------------------------------------------------------------------------------------------